Airfield :
LOGIN :

Register | Disclaimer

   EN    FR    IT 

 










Legend :    VFR   Marginal VFR   IFR   Intensive IFR   Very Intensive IFR
Visi :
Ceiling :
>= 8 km
>= 3000ft
5 to 8 km
1000 to 3000 ft
1500m to 5 km
500 to 1000 ft
800 to 1500m
200 to 500 ft
< 800m
< 200 ft
Symbols :   Thunderstorms  Fog  Heavy snow  Heavy precipitations  Wind > 20 kt
SIGMETs :     Misc.  Thunderstorms  Icing  Turbulence  Mountain Waves  Volcanic Ashes






- Airport Elevation : 510 ft


LJCE - Cerklje

CURRENT METAR :
  • 200400Z AUTO VRB01KT 9000 BR NSC 06/06 Q1015

EXPIRED METARs :
  • 200330Z AUTO 22001KT 9000 NSC 06/06 Q1015
  • 200300Z AUTO 25001KT 6000 BR NSC 06/06 Q1016
  • 200230Z AUTO 26004KT 5000 BR NSC 06/06 Q1016
  • 200200Z AUTO VRB01KT 4300 BR FEW002/// BKN064/// BKN078/// 06/06 Q1016
  • 200130Z AUTO 22002KT 3900 BR NSC 05/05 Q1016

TAF TAF LJCE
Valid from the 20 at 03:00 until the 20 at 12:00 UTC


200200Z 2003/2012 09004KT 9999 FEW040 BKN060
PROB30
TEMPO 2003/2008 0500 FG VV002
BECMG 2007/2009 26005KT BKN030 OVC040
TEMPO 2008/2012 5000 -RA BR OVC017



MET'MAP, your aeronautical weather chart ! - Copyright ORBIFLY December 2007 - Disclaimer

ORBIFLY MET'MAP TEAM :

Programming & Development : Alexandra Zaïnal
Concept & Development : Baudouin d'Aumeries
Co-Development & Prog : Marc-Olivier Méhu
Technical & hardware support : Manuel Goepfert

Contact : metmap@orbifly.com




SOURCES & CREDITS :

   NOAA